»·PEaware :: N5JL KPVD-KTEB

N5JL :: KPVD-KTEB

FLIGHT INFORMATION

Flight Status: Arrived
Operator: Privately registered:
United States
More flights under this callsign
Pilot: Jared L. (23098)
Aircraft: Unknown
(LEGA)
More flights by this aircraft type
Origin: KPVD Green State
United States
Destination: KTEB Teterboro
United States
More flights between these airports :: More routes between these airports
Route: PUT V146 BAF MOBBS SAGES V489 COATE
File this flight plan on PilotEdge
Remarks: +CW / RMK / SIMBRIEF
Altitude:
(Current/Filed)
20,000ft
Speed:
(Current/Filed)
404kts
Departed: 09-Jul-19 05:22 PM
Arrived: 09-Jul-19 06:01 PM
Distance/Time
Traveled:
130nm/0:39
Distance/Time
To Go:
Arrived

Flight Plot

Page will automatically refresh every two minutes.

Flight plan parsing failed; only flown route is shown


Map Options




Map Legend


Flown Route
Filed Route
Departure Airport
Arrival Airport
Navaid (VOR, NDB)
Fix

Horizontal Profiles

Position Reports

Time Latitude Longitude Heading Altitude Ground
Speed
09-Jul-19 16:57 41.731496 -71.429504 178 62ft 0kts
09-Jul-19 16:58 41.731496 -71.429504 178 62ft 0kts
09-Jul-19 16:59 41.731496 -71.429504 178 62ft 0kts
09-Jul-19 17:00 41.731496 -71.429504 178 62ft 0kts
09-Jul-19 17:01 41.731496 -71.429504 178 62ft 0kts
09-Jul-19 17:02 41.731496 -71.429504 178 62ft 0kts
09-Jul-19 17:03 41.731496 -71.429504 178 62ft 0kts
09-Jul-19 17:04 41.731496 -71.429504 178 62ft 0kts
09-Jul-19 17:05 41.731496 -71.429504 178 62ft 0kts
09-Jul-19 17:06 41.731496 -71.429504 178 62ft 0kts
09-Jul-19 17:07 41.731496 -71.429504 178 62ft 0kts
09-Jul-19 17:08 41.731496 -71.429504 178 62ft 0kts
09-Jul-19 17:09 41.731496 -71.429504 178 62ft 0kts
09-Jul-19 17:10 41.731496 -71.429504 178 62ft 0kts
09-Jul-19 17:11 41.731496 -71.429504 178 62ft 0kts
09-Jul-19 17:12 41.731496 -71.429504 178 62ft 0kts
09-Jul-19 17:13 41.731496 -71.429504 178 62ft 0kts
09-Jul-19 17:14 41.731496 -71.429504 178 62ft 0kts
09-Jul-19 17:15 41.731496 -71.429504 178 62ft 0kts
09-Jul-19 17:16 41.731432 -71.429560 226 62ft 0kts
09-Jul-19 17:17 41.731432 -71.429560 226 62ft 0kts
09-Jul-19 17:18 41.731662 -71.428511 91 62ft 6kts
09-Jul-19 17:19 41.731532 -71.423581 120 62ft 11kts
09-Jul-19 17:20 41.730073 -71.421493 179 62ft 2kts
09-Jul-19 17:21 41.715443 -71.433410 211 369ft 186kts
09-Jul-19 17:22 41.714033 -71.495474 317 3538ft 228kts
09-Jul-19 17:23 41.757353 -71.548284 317 6662ft 169kts
09-Jul-19 17:24 41.789730 -71.587805 317 9243ft 196kts
09-Jul-19 17:25 41.831897 -71.664733 285 11208ft 307kts
09-Jul-19 17:26 41.851882 -71.782354 285 13748ft 326kts
09-Jul-19 17:27 41.870477 -71.895168 285 16167ft 297kts
09-Jul-19 17:28 41.888607 -72.006093 285 17978ft 324kts
09-Jul-19 17:29 41.910283 -72.134239 285 18064ft 361kts
09-Jul-19 17:30 41.934145 -72.266792 286 18068ft 369kts
09-Jul-19 17:31 41.959493 -72.401534 287 18109ft 372kts
09-Jul-19 17:32 41.984958 -72.536772 286 18102ft 374kts
09-Jul-19 17:33 42.010014 -72.668843 286 18148ft 375kts
09-Jul-19 17:34 42.033380 -72.792946 286 18590ft 323kts
09-Jul-19 17:35 42.044826 -72.910058 272 18051ft 297kts
09-Jul-19 17:36 42.021383 -73.010283 245 18084ft 301kts
09-Jul-19 17:37 41.980898 -73.120469 249 18086ft 353kts
09-Jul-19 17:38 41.938155 -73.242542 249 18065ft 349kts
09-Jul-19 17:39 41.895958 -73.363093 250 18079ft 361kts
09-Jul-19 17:40 41.853333 -73.485236 250 18077ft 361kts
09-Jul-19 17:41 41.810725 -73.607602 250 18076ft 360kts
09-Jul-19 17:42 41.769962 -73.724938 249 18082ft 361kts
09-Jul-19 17:43 41.728555 -73.844268 249 16910ft 340kts
09-Jul-19 17:44 41.688140 -73.963491 245 14978ft 365kts
09-Jul-19 17:45 41.642695 -74.070297 244 12819ft 279kts
09-Jul-19 17:46 41.580372 -74.139287 217 10859ft 305kts
09-Jul-19 17:47 41.509958 -74.157024 174 8144ft 234kts
09-Jul-19 17:48 41.450630 -74.146753 174 6000ft 181kts
09-Jul-19 17:49 41.383550 -74.135748 174 5950ft 282kts
09-Jul-19 17:50 41.310923 -74.124175 171 4166ft 241kts
09-Jul-19 17:51 41.249456 -74.104477 167 4008ft 225kts
09-Jul-19 17:52 41.188814 -74.082882 167 4015ft 225kts
09-Jul-19 17:53 41.128339 -74.062992 167 3401ft 220kts
09-Jul-19 17:54 41.067211 -74.045533 178 2538ft 245kts
09-Jul-19 17:55 41.002843 -74.048316 184 2027ft 166kts
09-Jul-19 17:56 40.963245 -74.051250 184 2025ft 149kts
09-Jul-19 17:57 40.922866 -74.049008 165 1407ft 140kts
09-Jul-19 17:58 40.887839 -74.036388 175 650ft 136kts
09-Jul-19 17:59 40.859921 -74.050888 228 133ft 137kts
09-Jul-19 18:00 40.846841 -74.069898 190 10ft 17kts
09-Jul-19 18:01 40.848389 -74.065664 47 10ft 23kts
09-Jul-19 18:02 40.848960 -74.065250 338 10ft 0kts
09-Jul-19 18:03 40.850155 -74.066976 343 10ft 13kts
09-Jul-19 18:04 40.851427 -74.067821 215 10ft 7kts
09-Jul-19 18:05 40.851406 -74.067841 216 10ft 0kts
09-Jul-19 18:06 40.851406 -74.067841 216 10ft 0kts

Navigation Log

Ident Type
Flight plan parsing failed, navigation log unavailable